createdAt,value
2018-02-27T00:01:02.746Z,-8.55
2018-02-27T00:03:33.308Z,-8.58
2018-02-27T00:06:04.542Z,-8.55
2018-02-27T00:08:34.367Z,-8.51
2018-02-27T00:11:06.388Z,-8.61
2018-02-27T00:13:36.261Z,-8.63
2018-02-27T00:16:06.553Z,-8.60
2018-02-27T00:18:36.432Z,-8.69
2018-02-27T00:21:11.283Z,-8.61
2018-02-27T00:23:42.294Z,-8.71
2018-02-27T00:26:12.112Z,-8.73
2018-02-27T00:28:41.922Z,-8.80
2018-02-27T00:31:11.481Z,-8.82
2018-02-27T00:33:41.290Z,-8.84
2018-02-27T00:36:11.089Z,-8.89
2018-02-27T00:38:40.898Z,-8.86
2018-02-27T00:41:10.728Z,-8.81
2018-02-27T00:43:40.522Z,-8.88
2018-02-27T00:46:10.324Z,-8.91
2018-02-27T00:48:40.128Z,-8.99
2018-02-27T00:51:09.934Z,-8.93
2018-02-27T00:53:39.746Z,-9.02
2018-02-27T00:56:09.590Z,-8.97
2018-02-27T00:58:39.637Z,-8.86
2018-02-27T01:01:09.516Z,-8.83
2018-02-27T01:03:39.328Z,-8.92
2018-02-27T01:06:09.146Z,-8.96
2018-02-27T01:08:39.231Z,-8.95
2018-02-27T01:11:09.045Z,-8.90
2018-02-27T01:13:38.903Z,-9.03
2018-02-27T01:16:08.721Z,-9.10
2018-02-27T01:18:38.820Z,-9.07
2018-02-27T01:21:08.479Z,-9.04
2018-02-27T01:23:39.244Z,-9.15
2018-02-27T01:26:10.889Z,-9.17
2018-02-27T01:28:40.588Z,-9.06
2018-02-27T01:31:10.496Z,-9.17
2018-02-27T01:33:40.191Z,-9.08
2018-02-27T01:36:10.229Z,-9.15
2018-02-27T01:38:40.070Z,-9.17
2018-02-27T01:41:10.001Z,-9.23
2018-02-27T01:43:39.789Z,-9.14
2018-02-27T01:46:09.622Z,-9.14
2018-02-27T01:48:39.470Z,-9.23
2018-02-27T01:51:15.589Z,-9.37
2018-02-27T01:53:45.849Z,-9.39
2018-02-27T01:56:15.659Z,-9.36
2018-02-27T01:58:45.488Z,-9.45
2018-02-27T02:01:15.302Z,-9.39
2018-02-27T02:03:45.112Z,-9.35
2018-02-27T02:06:14.938Z,-9.39
2018-02-27T02:08:44.771Z,-9.31
2018-02-27T02:11:14.582Z,-9.31
2018-02-27T02:13:44.401Z,-9.41
2018-02-27T02:16:14.212Z,-9.45
2018-02-27T02:18:44.042Z,-9.51
2018-02-27T02:21:13.891Z,-9.54
2018-02-27T02:23:43.707Z,-9.46
2018-02-27T02:26:13.532Z,-9.59
2018-02-27T02:28:43.558Z,-9.55
2018-02-27T02:31:13.352Z,-9.53
2018-02-27T02:33:43.181Z,-9.51
2018-02-27T02:36:13.105Z,-9.61
2018-02-27T02:38:42.915Z,-9.66
2018-02-27T02:41:12.733Z,-9.61
2018-02-27T02:43:42.313Z,-9.62
2018-02-27T02:46:12.361Z,-9.72
2018-02-27T02:48:42.697Z,-9.82
2018-02-27T02:51:12.593Z,-9.76
2018-02-27T02:53:42.403Z,-9.80
2018-02-27T02:56:12.268Z,-9.82
2018-02-27T02:58:42.080Z,-9.81
2018-02-27T03:01:11.879Z,-9.90
2018-02-27T03:03:41.699Z,-9.86
2018-02-27T03:06:11.510Z,-9.92
2018-02-27T03:08:41.357Z,-9.97
2018-02-27T03:11:11.175Z,-10.00
2018-02-27T03:13:40.998Z,-9.95
2018-02-27T03:16:10.802Z,-9.96
2018-02-27T03:18:40.370Z,-10.04
2018-02-27T03:21:10.207Z,-10.03
2018-02-27T03:23:40.021Z,-10.05
2018-02-27T03:26:09.841Z,-10.04
2018-02-27T03:28:39.654Z,-10.02
2018-02-27T03:31:09.467Z,-10.05
2018-02-27T03:33:39.303Z,-10.01
2018-02-27T03:36:09.146Z,-9.91
2018-02-27T03:38:38.944Z,-9.93
2018-02-27T03:41:08.949Z,-10.02
2018-02-27T03:43:38.733Z,-9.88
2018-02-27T03:46:08.542Z,-9.96
2018-02-27T03:48:38.571Z,-9.95
2018-02-27T03:51:08.399Z,-10.05
2018-02-27T03:53:38.194Z,-10.15
2018-02-27T03:56:08.000Z,-10.13
2018-02-27T03:58:37.811Z,-10.12
2018-02-27T04:01:07.621Z,-10.08
2018-02-27T04:03:37.433Z,-10.18
2018-02-27T04:06:07.248Z,-10.18
2018-02-27T04:08:37.053Z,-10.28
2018-02-27T04:11:06.865Z,-10.26
2018-02-27T04:13:36.494Z,-10.21
2018-02-27T04:16:06.311Z,-10.17
2018-02-27T04:18:36.123Z,-10.09
2018-02-27T04:21:06.003Z,-10.12
2018-02-27T04:23:35.827Z,-10.20
2018-02-27T04:26:05.636Z,-10.14
2018-02-27T04:28:35.452Z,-10.10
2018-02-27T04:31:05.282Z,-10.01
2018-02-27T04:33:35.097Z,-9.94
2018-02-27T04:36:04.897Z,-9.91
2018-02-27T04:38:34.723Z,-9.93
2018-02-27T04:41:04.538Z,-9.94
2018-02-27T04:43:34.360Z,-9.93
2018-02-27T04:46:04.162Z,-9.93
2018-02-27T04:48:33.974Z,-9.84
2018-02-27T04:51:03.936Z,-9.79
2018-02-27T04:53:33.752Z,-9.88
2018-02-27T04:56:03.579Z,-9.90
2018-02-27T04:58:33.569Z,-9.84
2018-02-27T05:01:03.399Z,-9.90
2018-02-27T05:03:33.233Z,-9.95
2018-02-27T05:06:03.037Z,-9.91
2018-02-27T05:08:32.893Z,-9.88
2018-02-27T05:11:02.688Z,-9.89
2018-02-27T05:13:32.507Z,-9.85
2018-02-27T05:16:02.088Z,-9.85
2018-02-27T05:18:32.026Z,-9.78
2018-02-27T05:21:01.837Z,-9.68
2018-02-27T05:23:34.011Z,-9.74
2018-02-27T05:26:03.953Z,-9.78
2018-02-27T05:28:33.806Z,-9.71
2018-02-27T05:31:04.250Z,-9.86
2018-02-27T05:33:34.102Z,-9.94
2018-02-27T05:36:03.926Z,-9.90
2018-02-27T05:38:33.738Z,-9.98
2018-02-27T05:41:12.572Z,-9.96
2018-02-27T05:43:43.741Z,-10.05
2018-02-27T05:46:14.390Z,-10.09
2018-02-27T05:48:44.612Z,-10.12
2018-02-27T05:51:16.357Z,-10.11
2018-02-27T05:53:49.801Z,-10.08
2018-02-27T05:56:19.612Z,-10.07
2018-02-27T05:58:49.253Z,-10.03
2018-02-27T06:01:19.193Z,-10.00
2018-02-27T06:03:49.092Z,-9.97
2018-02-27T06:06:19.085Z,-10.03
2018-02-27T06:08:48.985Z,-10.01
2018-02-27T06:11:18.851Z,-9.91
2018-02-27T06:13:49.908Z,-9.94
2018-02-27T06:16:20.306Z,-10.00
2018-02-27T06:18:50.170Z,-9.95
2018-02-27T06:21:20.360Z,-10.02
2018-02-27T06:23:50.050Z,-9.85
2018-02-27T06:26:20.008Z,-9.84
2018-02-27T06:28:49.906Z,-9.79
2018-02-27T06:31:19.805Z,-9.78
2018-02-27T06:33:50.183Z,-9.61
2018-02-27T06:40:48.538Z,-9.62
2018-02-27T06:43:33.662Z,-9.61
2018-02-27T06:46:07.125Z,-9.59
2018-02-27T06:48:37.483Z,-9.47
2018-02-27T06:51:07.802Z,-9.36
2018-02-27T06:53:37.690Z,-9.28
2018-02-27T06:56:08.011Z,-9.03
2018-02-27T06:58:38.216Z,-9.09
2018-02-27T07:01:08.298Z,-9.13
2018-02-27T07:03:38.230Z,-9.01
2018-02-27T07:06:08.288Z,-8.99
2018-02-27T07:08:38.440Z,-8.88
2018-02-27T07:11:08.287Z,-9.04
2018-02-27T07:13:38.214Z,-8.71
2018-02-27T07:16:08.041Z,-8.73
2018-02-27T07:18:37.958Z,-8.71
2018-02-27T07:21:07.774Z,-8.59
2018-02-27T07:23:37.589Z,-8.39
2018-02-27T07:26:07.510Z,-8.31
2018-02-27T07:28:37.419Z,-8.10
2018-02-27T07:31:07.290Z,-7.88
2018-02-27T07:33:36.878Z,-7.87
2018-02-27T07:36:06.703Z,-7.56
2018-02-27T07:38:36.530Z,-7.68
2018-02-27T07:41:05.860Z,-7.65
2018-02-27T07:43:35.716Z,-7.43
2018-02-27T07:46:05.546Z,-7.38
2018-02-27T07:48:35.507Z,-6.98
2018-02-27T07:51:05.479Z,-6.83
2018-02-27T07:53:35.415Z,-6.97
2018-02-27T07:56:05.437Z,-6.62
2018-02-27T07:58:35.460Z,-6.30
2018-02-27T08:01:05.336Z,-6.77
2018-02-27T08:03:35.206Z,-6.53
2018-02-27T08:06:05.317Z,-6.13
2018-02-27T08:08:35.342Z,-5.50
2018-02-27T08:11:05.191Z,-5.27
2018-02-27T08:13:35.121Z,-5.45
2018-02-27T08:16:05.005Z,-4.99
2018-02-27T08:18:34.932Z,-4.60
2018-02-27T08:21:04.781Z,-4.16
2018-02-27T08:23:34.368Z,-4.17
2018-02-27T08:26:04.212Z,-3.89
2018-02-27T08:28:34.129Z,-3.41
2018-02-27T08:31:04.256Z,-3.35
2018-02-27T08:33:34.325Z,-3.37
2018-02-27T08:36:04.337Z,-3.32
2018-02-27T08:38:34.312Z,-3.51
2018-02-27T08:41:04.316Z,-2.38
2018-02-27T08:43:34.287Z,-1.79
2018-02-27T08:46:04.285Z,-2.70
2018-02-27T08:48:34.164Z,-1.50
2018-02-27T08:51:03.987Z,-2.34
2018-02-27T08:53:33.807Z,-2.01
2018-02-27T08:56:03.686Z,-2.74
2018-02-27T08:58:33.664Z,-2.00
2018-02-27T09:01:03.515Z,-0.93
2018-02-27T09:03:33.480Z,-1.13
2018-02-27T09:06:03.312Z,-1.33
2018-02-27T09:08:34.107Z,-0.90
2018-02-27T09:11:03.974Z,-0.06
2018-02-27T09:13:33.832Z,0.05
2018-02-27T09:16:03.671Z,-0.82
2018-02-27T09:18:33.535Z,-0.19
2018-02-27T09:21:03.357Z,0.38
2018-02-27T09:23:33.233Z,0.17
2018-02-27T09:26:03.052Z,0.32
2018-02-27T09:28:32.870Z,0.10
2018-02-27T09:31:02.825Z,1.34
2018-02-27T09:33:32.667Z,1.13
2018-02-27T09:36:02.658Z,0.51
2018-02-27T09:38:32.575Z,-0.90
2018-02-27T09:41:02.586Z,-1.00
2018-02-27T09:43:32.491Z,-0.96
2018-02-27T09:46:02.360Z,-0.87
2018-02-27T09:48:32.456Z,-1.72
2018-02-27T09:51:02.321Z,-1.45
2018-02-27T09:53:32.166Z,-1.60
2018-02-27T09:56:01.984Z,-2.25
2018-02-27T09:58:31.857Z,-2.59
2018-02-27T10:01:01.673Z,-3.20
2018-02-27T10:03:31.576Z,-3.67
2018-02-27T10:06:01.152Z,-3.32
2018-02-27T10:08:31.008Z,-3.54
2018-02-27T10:11:00.976Z,-3.23
2018-02-27T10:13:31.087Z,-3.44
2018-02-27T10:16:01.395Z,-3.55
2018-02-27T10:18:31.297Z,-3.29
2018-02-27T10:21:01.397Z,-3.49
2018-02-27T10:23:31.275Z,-2.61
2018-02-27T10:26:01.102Z,-2.40
2018-02-27T10:28:31.012Z,-2.91
2018-02-27T10:31:01.001Z,-1.67
2018-02-27T10:33:31.038Z,-2.05
2018-02-27T10:36:00.994Z,-1.88
2018-02-27T10:38:31.243Z,-2.20
2018-02-27T10:41:01.233Z,-2.68
2018-02-27T10:43:31.185Z,-2.95
2018-02-27T10:46:01.085Z,-2.35
2018-02-27T10:48:30.943Z,-2.23
2018-02-27T10:51:00.963Z,-2.48
2018-02-27T10:53:33.152Z,-3.04
2018-02-27T10:56:03.211Z,-2.89
2018-02-27T10:58:33.267Z,-2.72
2018-02-27T11:01:02.928Z,-2.58
2018-02-27T11:03:33.010Z,-3.13
2018-02-27T11:06:03.304Z,-2.34
2018-02-27T11:08:33.678Z,-2.63
2018-02-27T11:11:03.745Z,-2.31
2018-02-27T11:13:33.619Z,-2.74
2018-02-27T11:16:04.317Z,-2.71
2018-02-27T11:18:34.724Z,-1.82
2018-02-27T11:21:04.794Z,-2.02
2018-02-27T11:23:35.554Z,-1.39
2018-02-27T11:26:05.948Z,-0.84
2018-02-27T11:28:35.883Z,-1.79
2018-02-27T11:31:05.831Z,-1.22
2018-02-27T11:33:35.343Z,-1.95
2018-02-27T11:36:04.906Z,-1.61
2018-02-27T11:38:35.109Z,-1.99
2018-02-27T11:41:04.982Z,-0.76
2018-02-27T11:43:34.821Z,-1.79
2018-02-27T11:46:04.696Z,-0.30
2018-02-27T11:48:34.620Z,0.74
2018-02-27T11:51:04.145Z,1.92
2018-02-27T11:53:33.966Z,2.23
2018-02-27T11:56:03.937Z,0.02
2018-02-27T11:58:37.541Z,0.71
2018-02-27T12:01:07.418Z,-1.51
2018-02-27T12:03:37.288Z,-1.73
2018-02-27T12:06:07.822Z,-1.18
2018-02-27T12:08:37.676Z,-1.60
2018-02-27T12:11:07.546Z,-0.90
2018-02-27T12:13:37.401Z,0.24
2018-02-27T12:16:07.432Z,0.08
2018-02-27T12:18:37.422Z,0.59
2018-02-27T12:21:07.973Z,-0.06
2018-02-27T12:23:38.718Z,-0.73
2018-02-27T12:26:09.610Z,-1.65
2018-02-27T12:28:39.538Z,-1.43
2018-02-27T12:31:11.548Z,-1.93
2018-02-27T12:33:41.925Z,-2.61
2018-02-27T12:38:46.771Z,-2.31
2018-02-27T12:41:16.921Z,-2.13
2018-02-27T12:43:46.899Z,-2.87
2018-02-27T12:46:16.854Z,-3.23
2018-02-27T12:48:46.876Z,-4.01
2018-02-27T12:51:17.553Z,-3.73
2018-02-27T12:53:47.440Z,-4.06
2018-02-27T12:56:17.798Z,-3.78
2018-02-27T12:58:47.872Z,-3.69
2018-02-27T13:01:17.895Z,-3.92
2018-02-27T13:03:47.873Z,-4.15
2018-02-27T13:06:17.711Z,-4.41
2018-02-27T13:08:47.690Z,-3.67
2018-02-27T13:11:17.636Z,-3.85
2018-02-27T13:13:47.789Z,-4.18
2018-02-27T13:16:18.334Z,-4.05
2018-02-27T13:18:48.291Z,-4.39
2018-02-27T13:21:18.123Z,-4.22
2018-02-27T13:23:48.062Z,-3.74
2018-02-27T13:26:18.065Z,-4.19
2018-02-27T13:28:52.418Z,-4.21
2018-02-27T13:31:22.822Z,-3.73
2018-02-27T13:33:53.519Z,-3.95
2018-02-27T13:36:23.905Z,-4.40
2018-02-27T13:38:54.782Z,-4.30
2018-02-27T13:41:24.688Z,-3.92
2018-02-27T13:43:55.038Z,-3.67
2018-02-27T13:46:26.423Z,-3.84
2018-02-27T13:49:03.999Z,-4.32
2018-02-27T13:51:26.666Z,-4.20
2018-02-27T13:53:57.678Z,-4.54
2018-02-27T13:56:27.618Z,-4.18
2018-02-27T13:58:57.574Z,-4.16
2018-02-27T14:01:27.501Z,-4.40
2018-02-27T14:03:57.884Z,-4.21
2018-02-27T14:06:27.877Z,-4.15
2018-02-27T14:08:57.794Z,-4.16
2018-02-27T14:11:28.062Z,-4.10
2018-02-27T14:13:58.426Z,-4.08
2018-02-27T14:16:28.602Z,-3.91
2018-02-27T14:18:58.554Z,-4.41
2018-02-27T14:21:28.295Z,-4.53
2018-02-27T14:23:59.136Z,-4.44
2018-02-27T14:26:29.145Z,-4.53
2018-02-27T14:28:59.032Z,-4.75
2018-02-27T14:31:28.773Z,-4.46
2018-02-27T14:33:58.763Z,-4.89
2018-02-27T14:36:28.433Z,-4.86
2018-02-27T14:38:58.501Z,-4.90
2018-02-27T14:41:28.458Z,-4.82
2018-02-27T14:43:58.575Z,-4.91
2018-02-27T14:46:28.457Z,-4.77
2018-02-27T14:48:58.393Z,-4.96
2018-02-27T14:51:28.339Z,-5.04
2018-02-27T14:53:58.379Z,-5.00
2018-02-27T14:56:28.688Z,-4.94
2018-02-27T14:58:58.631Z,-5.10
2018-02-27T15:01:29.016Z,-5.00
2018-02-27T15:03:58.894Z,-5.10
2018-02-27T15:06:30.083Z,-5.28
2018-02-27T15:09:00.046Z,-5.42
2018-02-27T15:11:31.680Z,-5.18
2018-02-27T15:14:01.570Z,-5.45
2018-02-27T15:16:34.483Z,-5.66
2018-02-27T15:19:04.317Z,-5.43
2018-02-27T15:21:35.686Z,-5.43
2018-02-27T15:24:05.575Z,-5.62
2018-02-27T15:26:38.548Z,-5.89
2018-02-27T15:29:09.254Z,-6.04
2018-02-27T15:31:40.107Z,-5.79
2018-02-27T15:34:10.069Z,-5.73
2018-02-27T15:36:40.285Z,-5.83
2018-02-27T15:39:17.250Z,-5.93
2018-02-27T15:41:47.141Z,-6.17
2018-02-27T15:44:17.022Z,-6.12
2018-02-27T15:46:47.486Z,-6.06
2018-02-27T15:49:17.313Z,-6.28
2018-02-27T15:51:48.376Z,-6.35
2018-02-27T15:54:18.307Z,-6.44
2018-02-27T15:56:48.158Z,-6.45
2018-02-27T15:59:18.969Z,-6.54
2018-02-27T16:01:52.806Z,-6.61
2018-02-27T16:04:30.496Z,-6.74
2018-02-27T16:07:02.097Z,-6.78
2018-02-27T16:09:32.844Z,-6.77
2018-02-27T16:12:02.828Z,-6.85
2018-02-27T16:14:32.774Z,-6.84
2018-02-27T16:17:02.719Z,-7.17
2018-02-27T16:19:32.574Z,-7.07
2018-02-27T16:22:02.396Z,-7.14
2018-02-27T16:24:32.243Z,-7.10
2018-02-27T16:27:02.053Z,-7.25
2018-02-27T16:29:32.050Z,-7.21
2018-02-27T16:32:01.864Z,-7.21
2018-02-27T16:34:31.660Z,-7.36
2018-02-27T16:37:01.498Z,-7.21
2018-02-27T16:39:31.378Z,-7.15
2018-02-27T16:42:01.170Z,-7.21
2018-02-27T16:44:31.007Z,-7.33
2018-02-27T16:47:00.825Z,-7.50
2018-02-27T16:49:30.617Z,-7.49
2018-02-27T16:52:01.057Z,-7.54
2018-02-27T16:54:30.911Z,-7.53
2018-02-27T16:57:00.741Z,-7.48
2018-02-27T16:59:34.474Z,-7.53
2018-02-27T17:02:04.277Z,-7.55
2018-02-27T17:04:34.263Z,-7.59
2018-02-27T17:07:04.165Z,-7.48
2018-02-27T17:09:34.245Z,-7.50
2018-02-27T17:12:04.084Z,-7.56
2018-02-27T17:14:34.045Z,-7.56
2018-02-27T17:17:03.914Z,-7.71
2018-02-27T17:19:33.859Z,-7.80
2018-02-27T17:22:04.556Z,-7.82
2018-02-27T17:24:34.444Z,-7.90
2018-02-27T17:27:04.270Z,-7.85
2018-02-27T17:29:34.146Z,-7.69
2018-02-27T17:32:04.013Z,-7.80
2018-02-27T17:34:33.871Z,-7.89
2018-02-27T17:37:03.877Z,-7.83
2018-02-27T17:39:33.715Z,-7.85
2018-02-27T17:42:03.535Z,-7.94
2018-02-27T17:44:33.716Z,-7.95
2018-02-27T17:47:03.530Z,-7.85
2018-02-27T17:49:39.412Z,-7.92
2018-02-27T17:52:10.313Z,-7.75
2018-02-27T17:54:40.129Z,-7.65
2018-02-27T17:57:10.091Z,-7.68
2018-02-27T17:59:40.046Z,-7.75
2018-02-27T18:02:13.732Z,-7.89
2018-02-27T18:04:43.408Z,-7.99
2018-02-27T18:07:13.248Z,-7.85
2018-02-27T18:09:43.065Z,-7.95
2018-02-27T18:12:12.882Z,-7.96
2018-02-27T18:14:42.720Z,-8.01
2018-02-27T18:17:12.546Z,-8.08
2018-02-27T18:19:44.420Z,-7.91
2018-02-27T18:22:15.336Z,-7.99
2018-02-27T18:24:45.159Z,-8.14
2018-02-27T18:27:15.015Z,-8.25
2018-02-27T18:29:45.895Z,-8.17
2018-02-27T18:32:15.905Z,-7.95
2018-02-27T18:34:45.911Z,-8.01
2018-02-27T18:37:15.734Z,-8.15
2018-02-27T18:39:45.683Z,-8.11
2018-02-27T18:42:16.244Z,-7.97
2018-02-27T18:44:46.157Z,-8.06
2018-02-27T18:47:16.876Z,-8.04
2018-02-27T18:49:46.894Z,-8.08
2018-02-27T18:52:16.885Z,-8.16
2018-02-27T18:54:46.843Z,-8.15
2018-02-27T18:57:17.188Z,-8.18
2018-02-27T18:59:51.779Z,-8.28
2018-02-27T19:02:24.976Z,-8.27
2018-02-27T19:05:00.250Z,-8.33
2018-02-27T19:07:31.127Z,-8.26
2018-02-27T19:10:01.029Z,-8.34
2018-02-27T19:12:30.918Z,-8.32
2018-02-27T19:15:01.094Z,-8.27
2018-02-27T19:17:31.601Z,-8.18
2018-02-27T19:20:01.689Z,-8.21
2018-02-27T19:22:31.565Z,-8.18
2018-02-27T19:25:01.405Z,-8.11
2018-02-27T19:27:31.540Z,-8.14
2018-02-27T19:30:01.788Z,-8.17
2018-02-27T19:32:32.080Z,-8.23
2018-02-27T19:35:03.117Z,-8.33
2018-02-27T19:37:33.411Z,-8.28
2018-02-27T19:40:03.702Z,-8.13
2018-02-27T19:42:33.786Z,-8.27
2018-02-27T19:45:03.988Z,-8.33
2018-02-27T19:47:34.518Z,-8.50
2018-02-27T19:50:04.671Z,-8.54
2018-02-27T19:52:34.837Z,-8.59
2018-02-27T19:55:05.067Z,-8.51
2018-02-27T19:57:35.137Z,-8.65
2018-02-27T20:00:05.615Z,-8.66
2018-02-27T20:02:35.894Z,-8.74
2018-02-27T20:05:05.947Z,-8.66
2018-02-27T20:07:36.021Z,-8.66
2018-02-27T20:10:06.028Z,-8.72
2018-02-27T20:12:36.353Z,-8.76
2018-02-27T20:15:06.454Z,-8.84
2018-02-27T20:17:42.030Z,-8.96
2018-02-27T20:20:12.006Z,-8.81
2018-02-27T20:22:47.261Z,-8.89
2018-02-27T20:25:17.590Z,-8.74
2018-02-27T20:27:47.538Z,-8.80
2018-02-27T20:30:17.667Z,-8.88
2018-02-27T20:32:48.171Z,-8.82
2018-02-27T20:35:18.360Z,-8.81
2018-02-27T20:37:54.292Z,-8.87
2018-02-27T20:40:24.282Z,-8.93
2018-02-27T20:42:54.161Z,-9.04
2018-02-27T20:45:24.206Z,-9.10
2018-02-27T20:47:54.561Z,-9.25
2018-02-27T20:50:28.358Z,-9.32
2018-02-27T20:52:58.341Z,-9.33
2018-02-27T20:55:28.379Z,-9.15
2018-02-27T20:57:58.548Z,-9.17
2018-02-27T21:00:28.509Z,-9.09
2018-02-27T21:02:58.890Z,-9.28
2018-02-27T21:05:28.913Z,-9.38
2018-02-27T21:07:59.420Z,-9.32
2018-02-27T21:10:29.340Z,-9.28
2018-02-27T21:12:59.264Z,-9.30
2018-02-27T21:15:29.097Z,-9.33
2018-02-27T21:17:59.039Z,-9.36
2018-02-27T21:20:33.400Z,-9.42
2018-02-27T21:23:03.521Z,-9.45
2018-02-27T21:25:33.843Z,-9.46
2018-02-27T21:28:08.709Z,-9.49
2018-02-27T21:30:38.625Z,-9.43
2018-02-27T21:33:08.716Z,-9.51
2018-02-27T21:35:38.781Z,-9.50
2018-02-27T21:38:08.663Z,-9.48
2018-02-27T21:40:39.902Z,-9.37
2018-02-27T21:43:10.241Z,-9.31
2018-02-27T21:45:40.418Z,-9.38
2018-02-27T21:48:11.752Z,-9.39
2018-02-27T21:50:41.960Z,-9.38
2018-02-27T21:53:13.132Z,-9.38
2018-02-27T21:55:43.330Z,-9.34
2018-02-27T21:58:17.468Z,-9.39
2018-02-27T22:00:48.399Z,-9.49
2018-02-27T22:03:18.233Z,-9.40
2018-02-27T22:05:49.016Z,-9.34
2018-02-27T22:08:19.655Z,-9.36
2018-02-27T22:10:50.018Z,-9.36
2018-02-27T22:13:20.201Z,-9.33
2018-02-27T22:15:54.131Z,-9.32
2018-02-27T22:18:24.115Z,-9.30
2018-02-27T22:20:54.082Z,-9.32
2018-02-27T22:23:24.035Z,-9.37
2018-02-27T22:25:53.868Z,-9.36
2018-02-27T22:28:24.562Z,-9.33
2018-02-27T22:30:54.643Z,-9.25
2018-02-27T22:33:24.933Z,-9.21
2018-02-27T22:35:54.770Z,-9.20
2018-02-27T22:38:24.750Z,-9.34
2018-02-27T22:40:54.672Z,-9.38
2018-02-27T22:43:24.502Z,-9.37
2018-02-27T22:45:54.419Z,-9.44
2018-02-27T22:48:24.288Z,-9.47
2018-02-27T22:50:54.110Z,-9.53
2018-02-27T22:53:23.940Z,-9.56
2018-02-27T22:55:53.860Z,-9.47
2018-02-27T22:58:23.944Z,-9.41
2018-02-27T23:00:53.777Z,-9.39
2018-02-27T23:03:23.057Z,-9.30
2018-02-27T23:05:52.875Z,-9.34
2018-02-27T23:08:22.715Z,-9.37
2018-02-27T23:10:52.540Z,-9.37
2018-02-27T23:13:22.661Z,-9.34
2018-02-27T23:15:52.209Z,-9.32
2018-02-27T23:18:22.055Z,-9.33
2018-02-27T23:20:51.857Z,-9.34
2018-02-27T23:23:21.660Z,-9.31
2018-02-27T23:26:01.268Z,-9.33
2018-02-27T23:28:35.438Z,-9.36
2018-02-27T23:31:05.534Z,-9.43
2018-02-27T23:33:36.777Z,-9.40
2018-02-27T23:36:06.882Z,-9.48
2018-02-27T23:38:36.877Z,-9.52
2018-02-27T23:41:07.444Z,-9.61
2018-02-27T23:43:38.174Z,-9.69
2018-02-27T23:46:08.403Z,-9.76
2018-02-27T23:48:38.331Z,-9.79
2018-02-27T23:51:08.640Z,-9.95
2018-02-27T23:53:38.872Z,-10.04
2018-02-27T23:56:08.671Z,-10.02
2018-02-27T23:58:39.188Z,-10.02
